sensor_id;sensor_type;location;lat;lon;timestamp;P1;durP1;ratioP1;P2;durP2;ratioP2
20411;SDS011;10365;52.578;8.138;2023-06-14T00:01:00;6.68;;;2.47;;
20411;SDS011;10365;52.578;8.138;2023-06-14T00:03:28;6.15;;;2.58;;
20411;SDS011;10365;52.578;8.138;2023-06-14T00:05:53;3.08;;;1.98;;
20411;SDS011;10365;52.578;8.138;2023-06-14T00:08:18;8.60;;;2.05;;
20411;SDS011;10365;52.578;8.138;2023-06-14T00:10:46;4.07;;;2.08;;
20411;SDS011;10365;52.578;8.138;2023-06-14T00:13:11;4.28;;;2.15;;
20411;SDS011;10365;52.578;8.138;2023-06-14T00:15:37;4.32;;;2.40;;
20411;SDS011;10365;52.578;8.138;2023-06-14T00:18:03;3.92;;;1.92;;
20411;SDS011;10365;52.578;8.138;2023-06-14T00:20:29;4.05;;;2.10;;
20411;SDS011;10365;52.578;8.138;2023-06-14T00:22:55;5.72;;;2.47;;
20411;SDS011;10365;52.578;8.138;2023-06-14T00:25:24;7.25;;;2.20;;
20411;SDS011;10365;52.578;8.138;2023-06-14T00:27:52;4.82;;;2.25;;
20411;SDS011;10365;52.578;8.138;2023-06-14T00:30:18;4.95;;;2.65;;
20411;SDS011;10365;52.578;8.138;2023-06-14T00:32:43;4.53;;;2.00;;
20411;SDS011;10365;52.578;8.138;2023-06-14T00:35:09;5.47;;;2.00;;
20411;SDS011;10365;52.578;8.138;2023-06-14T00:37:35;3.45;;;1.98;;
20411;SDS011;10365;52.578;8.138;2023-06-14T00:40:01;6.95;;;2.10;;
20411;SDS011;10365;52.578;8.138;2023-06-14T00:42:26;5.43;;;2.03;;
20411;SDS011;10365;52.578;8.138;2023-06-14T00:44:52;6.95;;;2.28;;
20411;SDS011;10365;52.578;8.138;2023-06-14T00:47:17;9.95;;;2.50;;
20411;SDS011;10365;52.578;8.138;2023-06-14T00:49:44;7.43;;;2.08;;
20411;SDS011;10365;52.578;8.138;2023-06-14T00:52:10;4.65;;;3.28;;
20411;SDS011;10365;52.578;8.138;2023-06-14T00:54:38;5.32;;;2.25;;
20411;SDS011;10365;52.578;8.138;2023-06-14T00:57:03;5.35;;;2.40;;
20411;SDS011;10365;52.578;8.138;2023-06-14T00:59:28;3.95;;;2.00;;
20411;SDS011;10365;52.578;8.138;2023-06-14T01:01:54;3.08;;;1.80;;
20411;SDS011;10365;52.578;8.138;2023-06-14T01:04:20;4.60;;;2.05;;
20411;SDS011;10365;52.578;8.138;2023-06-14T01:07:51;8.55;;;2.40;;
20411;SDS011;10365;52.578;8.138;2023-06-14T01:12:21;7.30;;;2.33;;
20411;SDS011;10365;52.578;8.138;2023-06-14T01:14:50;9.40;;;2.20;;
20411;SDS011;10365;52.578;8.138;2023-06-14T01:17:18;4.25;;;2.00;;
20411;SDS011;10365;52.578;8.138;2023-06-14T01:19:43;7.63;;;2.10;;
20411;SDS011;10365;52.578;8.138;2023-06-14T01:22:12;5.28;;;2.20;;
20411;SDS011;10365;52.578;8.138;2023-06-14T01:24:38;9.32;;;2.42;;
20411;SDS011;10365;52.578;8.138;2023-06-14T01:27:04;9.10;;;2.20;;
20411;SDS011;10365;52.578;8.138;2023-06-14T01:29:30;8.63;;;2.10;;
20411;SDS011;10365;52.578;8.138;2023-06-14T01:31:58;9.55;;;2.17;;
20411;SDS011;10365;52.578;8.138;2023-06-14T01:34:24;5.30;;;2.30;;
20411;SDS011;10365;52.578;8.138;2023-06-14T01:36:50;4.68;;;2.25;;
20411;SDS011;10365;52.578;8.138;2023-06-14T01:39:17;7.45;;;2.50;;
20411;SDS011;10365;52.578;8.138;2023-06-14T01:41:42;5.78;;;2.35;;
20411;SDS011;10365;52.578;8.138;2023-06-14T01:44:08;4.05;;;2.33;;
20411;SDS011;10365;52.578;8.138;2023-06-14T01:46:34;8.02;;;2.38;;
20411;SDS011;10365;52.578;8.138;2023-06-14T01:48:59;9.25;;;2.58;;
20411;SDS011;10365;52.578;8.138;2023-06-14T01:51:25;4.38;;;2.38;;
20411;SDS011;10365;52.578;8.138;2023-06-14T01:53:51;7.88;;;2.65;;
20411;SDS011;10365;52.578;8.138;2023-06-14T01:56:16;5.57;;;2.40;;
20411;SDS011;10365;52.578;8.138;2023-06-14T01:58:41;5.97;;;2.40;;
20411;SDS011;10365;52.578;8.138;2023-06-14T02:01:07;6.70;;;3.10;;
20411;SDS011;10365;52.578;8.138;2023-06-14T02:03:32;3.65;;;2.55;;
20411;SDS011;10365;52.578;8.138;2023-06-14T02:05:57;11.00;;;3.00;;
20411;SDS011;10365;52.578;8.138;2023-06-14T02:08:23;5.63;;;2.92;;
20411;SDS011;10365;52.578;8.138;2023-06-14T02:10:48;4.68;;;2.38;;
20411;SDS011;10365;52.578;8.138;2023-06-14T02:13:14;3.63;;;2.50;;
20411;SDS011;10365;52.578;8.138;2023-06-14T02:15:39;6.43;;;3.08;;
20411;SDS011;10365;52.578;8.138;2023-06-14T02:18:05;5.82;;;2.35;;
20411;SDS011;10365;52.578;8.138;2023-06-14T02:20:32;5.72;;;2.15;;
20411;SDS011;10365;52.578;8.138;2023-06-14T02:22:58;4.60;;;2.38;;
20411;SDS011;10365;52.578;8.138;2023-06-14T02:25:23;3.83;;;2.50;;
20411;SDS011;10365;52.578;8.138;2023-06-14T02:27:48;7.22;;;2.38;;
20411;SDS011;10365;52.578;8.138;2023-06-14T02:30:14;5.60;;;2.65;;
20411;SDS011;10365;52.578;8.138;2023-06-14T02:32:40;4.55;;;2.55;;
20411;SDS011;10365;52.578;8.138;2023-06-14T02:35:07;3.30;;;2.33;;
20411;SDS011;10365;52.578;8.138;2023-06-14T02:37:34;7.22;;;2.50;;
20411;SDS011;10365;52.578;8.138;2023-06-14T02:40:00;5.80;;;2.40;;
20411;SDS011;10365;52.578;8.138;2023-06-14T02:42:25;8.52;;;2.35;;
20411;SDS011;10365;52.578;8.138;2023-06-14T02:44:50;3.10;;;2.55;;
20411;SDS011;10365;52.578;8.138;2023-06-14T02:47:17;3.55;;;2.35;;
20411;SDS011;10365;52.578;8.138;2023-06-14T02:49:43;4.68;;;2.85;;
20411;SDS011;10365;52.578;8.138;2023-06-14T02:52:13;7.25;;;3.17;;
20411;SDS011;10365;52.578;8.138;2023-06-14T02:54:39;6.45;;;3.17;;
20411;SDS011;10365;52.578;8.138;2023-06-14T02:57:05;6.28;;;2.75;;
20411;SDS011;10365;52.578;8.138;2023-06-14T02:59:33;4.57;;;3.03;;
20411;SDS011;10365;52.578;8.138;2023-06-14T03:01:59;7.15;;;2.83;;
20411;SDS011;10365;52.578;8.138;2023-06-14T03:04:25;4.47;;;2.60;;
20411;SDS011;10365;52.578;8.138;2023-06-14T03:06:52;4.70;;;2.47;;
20411;SDS011;10365;52.578;8.138;2023-06-14T03:09:20;6.35;;;2.42;;
20411;SDS011;10365;52.578;8.138;2023-06-14T03:11:45;3.63;;;2.55;;
20411;SDS011;10365;52.578;8.138;2023-06-14T03:14:11;7.88;;;2.65;;
20411;SDS011;10365;52.578;8.138;2023-06-14T03:16:39;4.53;;;2.55;;
20411;SDS011;10365;52.578;8.138;2023-06-14T03:19:06;6.53;;;2.50;;
20411;SDS011;10365;52.578;8.138;2023-06-14T03:21:32;5.60;;;2.47;;
20411;SDS011;10365;52.578;8.138;2023-06-14T03:24:00;4.55;;;2.53;;
20411;SDS011;10365;52.578;8.138;2023-06-14T03:26:25;5.65;;;2.50;;
20411;SDS011;10365;52.578;8.138;2023-06-14T03:28:53;9.57;;;2.85;;
20411;SDS011;10365;52.578;8.138;2023-06-14T03:31:20;7.57;;;3.38;;
20411;SDS011;10365;52.578;8.138;2023-06-14T03:33:45;13.13;;;2.95;;
20411;SDS011;10365;52.578;8.138;2023-06-14T03:36:11;4.60;;;2.72;;
20411;SDS011;10365;52.578;8.138;2023-06-14T03:38:37;7.00;;;2.72;;
20411;SDS011;10365;52.578;8.138;2023-06-14T03:41:03;5.95;;;3.00;;
20411;SDS011;10365;52.578;8.138;2023-06-14T03:43:29;7.30;;;2.40;;
20411;SDS011;10365;52.578;8.138;2023-06-14T03:45:55;6.00;;;3.25;;
20411;SDS011;10365;52.578;8.138;2023-06-14T03:48:22;6.43;;;3.15;;
20411;SDS011;10365;52.578;8.138;2023-06-14T03:50:48;13.10;;;3.10;;
20411;SDS011;10365;52.578;8.138;2023-06-14T03:53:13;4.60;;;3.03;;
20411;SDS011;10365;52.578;8.138;2023-06-14T03:55:42;7.13;;;3.55;;
20411;SDS011;10365;52.578;8.138;2023-06-14T03:58:07;7.65;;;3.30;;
20411;SDS011;10365;52.578;8.138;2023-06-14T04:00:35;10.23;;;3.42;;
20411;SDS011;10365;52.578;8.138;2023-06-14T04:03:01;5.57;;;3.08;;
20411;SDS011;10365;52.578;8.138;2023-06-14T04:05:28;5.22;;;2.97;;
20411;SDS011;10365;52.578;8.138;2023-06-14T04:07:55;10.23;;;3.10;;
20411;SDS011;10365;52.578;8.138;2023-06-14T04:10:22;10.30;;;4.15;;
20411;SDS011;10365;52.578;8.138;2023-06-14T04:12:47;6.00;;;3.47;;
20411;SDS011;10365;52.578;8.138;2023-06-14T04:15:13;6.05;;;2.90;;
20411;SDS011;10365;52.578;8.138;2023-06-14T04:17:39;8.23;;;2.88;;
20411;SDS011;10365;52.578;8.138;2023-06-14T04:20:05;5.45;;;3.22;;
20411;SDS011;10365;52.578;8.138;2023-06-14T04:22:32;5.93;;;3.47;;
20411;SDS011;10365;52.578;8.138;2023-06-14T04:24:58;6.65;;;3.30;;
20411;SDS011;10365;52.578;8.138;2023-06-14T04:27:26;7.50;;;3.72;;
20411;SDS011;10365;52.578;8.138;2023-06-14T04:29:52;4.72;;;3.30;;
20411;SDS011;10365;52.578;8.138;2023-06-14T04:32:25;9.75;;;3.60;;
20411;SDS011;10365;52.578;8.138;2023-06-14T04:34:53;7.13;;;3.78;;
20411;SDS011;10365;52.578;8.138;2023-06-14T04:37:19;5.97;;;3.13;;
20411;SDS011;10365;52.578;8.138;2023-06-14T04:39:46;5.10;;;2.97;;
20411;SDS011;10365;52.578;8.138;2023-06-14T04:42:12;5.90;;;3.33;;
20411;SDS011;10365;52.578;8.138;2023-06-14T04:44:38;5.18;;;2.75;;
20411;SDS011;10365;52.578;8.138;2023-06-14T04:47:05;6.45;;;3.25;;
20411;SDS011;10365;52.578;8.138;2023-06-14T04:49:32;9.82;;;3.58;;
20411;SDS011;10365;52.578;8.138;2023-06-14T04:51:59;7.55;;;3.13;;
20411;SDS011;10365;52.578;8.138;2023-06-14T04:54:31;7.80;;;3.33;;
20411;SDS011;10365;52.578;8.138;2023-06-14T04:56:59;7.63;;;3.30;;
20411;SDS011;10365;52.578;8.138;2023-06-14T04:59:25;5.53;;;2.95;;
20411;SDS011;10365;52.578;8.138;2023-06-14T05:01:51;5.00;;;2.63;;
20411;SDS011;10365;52.578;8.138;2023-06-14T05:04:17;4.20;;;2.50;;
20411;SDS011;10365;52.578;8.138;2023-06-14T05:06:44;6.53;;;2.63;;
20411;SDS011;10365;52.578;8.138;2023-06-14T05:09:16;4.47;;;2.40;;
20411;SDS011;10365;52.578;8.138;2023-06-14T05:11:43;4.10;;;2.78;;
20411;SDS011;10365;52.578;8.138;2023-06-14T05:14:10;7.22;;;3.40;;
20411;SDS011;10365;52.578;8.138;2023-06-14T05:16:35;6.57;;;2.70;;
20411;SDS011;10365;52.578;8.138;2023-06-14T05:19:02;9.15;;;2.70;;
20411;SDS011;10365;52.578;8.138;2023-06-14T05:21:27;8.98;;;3.03;;
20411;SDS011;10365;52.578;8.138;2023-06-14T05:23:53;6.30;;;2.60;;
20411;SDS011;10365;52.578;8.138;2023-06-14T05:26:19;6.65;;;2.60;;
20411;SDS011;10365;52.578;8.138;2023-06-14T05:28:44;7.22;;;3.03;;
20411;SDS011;10365;52.578;8.138;2023-06-14T05:31:12;4.57;;;2.40;;
20411;SDS011;10365;52.578;8.138;2023-06-14T05:33:37;6.05;;;2.72;;
20411;SDS011;10365;52.578;8.138;2023-06-14T05:36:03;6.60;;;2.67;;
20411;SDS011;10365;52.578;8.138;2023-06-14T05:38:28;5.93;;;2.58;;
20411;SDS011;10365;52.578;8.138;2023-06-14T05:40:53;6.93;;;2.78;;
20411;SDS011;10365;52.578;8.138;2023-06-14T05:43:19;7.22;;;2.33;;
20411;SDS011;10365;52.578;8.138;2023-06-14T05:45:44;5.80;;;2.50;;
20411;SDS011;10365;52.578;8.138;2023-06-14T05:48:09;4.95;;;2.03;;
20411;SDS011;10365;52.578;8.138;2023-06-14T05:50:35;7.82;;;2.70;;
20411;SDS011;10365;52.578;8.138;2023-06-14T05:53:01;8.07;;;3.40;;
20411;SDS011;10365;52.578;8.138;2023-06-14T05:55:26;6.95;;;2.42;;
20411;SDS011;10365;52.578;8.138;2023-06-14T05:57:52;3.90;;;2.55;;
20411;SDS011;10365;52.578;8.138;2023-06-14T06:00:17;4.90;;;2.13;;
20411;SDS011;10365;52.578;8.138;2023-06-14T06:02:44;8.98;;;3.28;;
20411;SDS011;10365;52.578;8.138;2023-06-14T06:05:13;9.95;;;3.33;;
20411;SDS011;10365;52.578;8.138;2023-06-14T06:07:38;6.43;;;2.72;;
20411;SDS011;10365;52.578;8.138;2023-06-14T06:10:05;9.23;;;2.83;;
20411;SDS011;10365;52.578;8.138;2023-06-14T06:12:31;16.20;;;3.08;;
20411;SDS011;10365;52.578;8.138;2023-06-14T06:14:57;6.10;;;2.80;;
20411;SDS011;10365;52.578;8.138;2023-06-14T06:17:23;6.07;;;2.38;;
20411;SDS011;10365;52.578;8.138;2023-06-14T06:19:48;11.70;;;2.75;;
20411;SDS011;10365;52.578;8.138;2023-06-14T06:22:13;11.73;;;2.38;;
20411;SDS011;10365;52.578;8.138;2023-06-14T06:24:39;8.38;;;2.55;;
20411;SDS011;10365;52.578;8.138;2023-06-14T06:27:04;6.57;;;2.30;;
20411;SDS011;10365;52.578;8.138;2023-06-14T06:29:29;2.65;;;1.90;;
20411;SDS011;10365;52.578;8.138;2023-06-14T06:31:55;6.05;;;2.25;;
20411;SDS011;10365;52.578;8.138;2023-06-14T06:34:24;12.13;;;2.42;;
20411;SDS011;10365;52.578;8.138;2023-06-14T06:36:50;6.43;;;2.15;;
20411;SDS011;10365;52.578;8.138;2023-06-14T06:39:15;11.90;;;2.30;;
20411;SDS011;10365;52.578;8.138;2023-06-14T06:41:41;3.25;;;2.20;;
20411;SDS011;10365;52.578;8.138;2023-06-14T06:44:06;3.38;;;2.00;;
20411;SDS011;10365;52.578;8.138;2023-06-14T06:46:32;5.15;;;2.15;;
20411;SDS011;10365;52.578;8.138;2023-06-14T06:48:58;8.43;;;2.53;;
20411;SDS011;10365;52.578;8.138;2023-06-14T06:51:24;6.75;;;2.50;;
20411;SDS011;10365;52.578;8.138;2023-06-14T06:53:52;4.50;;;2.25;;
20411;SDS011;10365;52.578;8.138;2023-06-14T06:56:18;10.27;;;2.10;;
20411;SDS011;10365;52.578;8.138;2023-06-14T06:58:44;5.85;;;1.90;;
20411;SDS011;10365;52.578;8.138;2023-06-14T07:01:09;9.73;;;2.30;;
20411;SDS011;10365;52.578;8.138;2023-06-14T07:03:35;6.68;;;2.08;;
20411;SDS011;10365;52.578;8.138;2023-06-14T07:06:00;9.52;;;1.92;;
20411;SDS011;10365;52.578;8.138;2023-06-14T07:08:25;5.93;;;1.70;;
20411;SDS011;10365;52.578;8.138;2023-06-14T07:10:52;7.38;;;2.28;;
20411;SDS011;10365;52.578;8.138;2023-06-14T07:13:17;11.73;;;2.30;;
20411;SDS011;10365;52.578;8.138;2023-06-14T07:15:42;2.97;;;2.15;;
20411;SDS011;10365;52.578;8.138;2023-06-14T07:18:08;4.38;;;2.08;;
20411;SDS011;10365;52.578;8.138;2023-06-14T07:20:33;6.05;;;1.63;;
20411;SDS011;10365;52.578;8.138;2023-06-14T07:22:59;7.95;;;2.22;;
20411;SDS011;10365;52.578;8.138;2023-06-14T07:25:24;7.43;;;2.08;;
20411;SDS011;10365;52.578;8.138;2023-06-14T07:27:50;2.85;;;2.03;;
20411;SDS011;10365;52.578;8.138;2023-06-14T07:30:15;13.07;;;2.22;;
20411;SDS011;10365;52.578;8.138;2023-06-14T07:32:41;6.05;;;1.65;;
20411;SDS011;10365;52.578;8.138;2023-06-14T07:35:06;4.25;;;2.00;;
20411;SDS011;10365;52.578;8.138;2023-06-14T07:37:31;5.75;;;2.00;;
20411;SDS011;10365;52.578;8.138;2023-06-14T07:39:57;5.10;;;2.30;;
20411;SDS011;10365;52.578;8.138;2023-06-14T07:42:22;6.85;;;1.90;;
20411;SDS011;10365;52.578;8.138;2023-06-14T07:44:47;5.68;;;1.98;;
20411;SDS011;10365;52.578;8.138;2023-06-14T07:47:13;10.20;;;1.70;;
20411;SDS011;10365;52.578;8.138;2023-06-14T07:49:38;5.95;;;1.70;;
20411;SDS011;10365;52.578;8.138;2023-06-14T07:52:04;5.50;;;1.73;;
20411;SDS011;10365;52.578;8.138;2023-06-14T07:54:30;3.92;;;1.40;;
20411;SDS011;10365;52.578;8.138;2023-06-14T07:56:56;4.07;;;1.27;;
20411;SDS011;10365;52.578;8.138;2023-06-14T07:59:22;4.60;;;2.00;;
20411;SDS011;10365;52.578;8.138;2023-06-14T08:01:47;6.07;;;1.48;;
20411;SDS011;10365;52.578;8.138;2023-06-14T08:04:15;2.47;;;1.48;;
20411;SDS011;10365;52.578;8.138;2023-06-14T08:06:41;8.75;;;1.55;;
20411;SDS011;10365;52.578;8.138;2023-06-14T08:09:09;13.52;;;1.60;;
20411;SDS011;10365;52.578;8.138;2023-06-14T08:11:35;5.15;;;1.50;;
20411;SDS011;10365;52.578;8.138;2023-06-14T08:14:00;9.68;;;1.75;;
20411;SDS011;10365;52.578;8.138;2023-06-14T08:16:25;10.52;;;1.70;;
20411;SDS011;10365;52.578;8.138;2023-06-14T08:18:51;15.25;;;2.72;;
20411;SDS011;10365;52.578;8.138;2023-06-14T08:21:16;19.92;;;2.20;;
20411;SDS011;10365;52.578;8.138;2023-06-14T08:23:41;5.90;;;1.30;;
20411;SDS011;10365;52.578;8.138;2023-06-14T08:26:08;10.63;;;1.42;;
20411;SDS011;10365;52.578;8.138;2023-06-14T08:28:33;4.72;;;1.40;;
20411;SDS011;10365;52.578;8.138;2023-06-14T08:30:58;7.63;;;1.50;;
20411;SDS011;10365;52.578;8.138;2023-06-14T08:33:24;6.97;;;1.60;;
20411;SDS011;10365;52.578;8.138;2023-06-14T08:35:50;12.75;;;1.70;;
20411;SDS011;10365;52.578;8.138;2023-06-14T08:38:15;6.13;;;1.40;;
20411;SDS011;10365;52.578;8.138;2023-06-14T08:40:41;10.57;;;1.65;;
20411;SDS011;10365;52.578;8.138;2023-06-14T08:43:07;8.15;;;1.85;;
20411;SDS011;10365;52.578;8.138;2023-06-14T08:45:32;4.30;;;1.60;;
20411;SDS011;10365;52.578;8.138;2023-06-14T08:47:57;10.60;;;1.98;;
20411;SDS011;10365;52.578;8.138;2023-06-14T08:50:25;5.07;;;1.50;;
20411;SDS011;10365;52.578;8.138;2023-06-14T08:52:55;5.28;;;1.67;;
20411;SDS011;10365;52.578;8.138;2023-06-14T08:55:22;10.77;;;1.55;;
20411;SDS011;10365;52.578;8.138;2023-06-14T08:57:51;5.95;;;1.58;;
20411;SDS011;10365;52.578;8.138;2023-06-14T09:00:16;11.00;;;2.10;;
20411;SDS011;10365;52.578;8.138;2023-06-14T09:02:42;8.32;;;2.33;;
20411;SDS011;10365;52.578;8.138;2023-06-14T09:05:11;8.25;;;1.70;;
20411;SDS011;10365;52.578;8.138;2023-06-14T09:07:41;5.07;;;1.42;;
20411;SDS011;10365;52.578;8.138;2023-06-14T09:10:11;4.57;;;1.42;;
20411;SDS011;10365;52.578;8.138;2023-06-14T09:12:36;4.82;;;1.75;;
20411;SDS011;10365;52.578;8.138;2023-06-14T09:15:03;5.60;;;1.60;;
20411;SDS011;10365;52.578;8.138;2023-06-14T09:17:40;5.53;;;1.67;;
20411;SDS011;10365;52.578;8.138;2023-06-14T09:20:06;12.80;;;1.80;;
20411;SDS011;10365;52.578;8.138;2023-06-14T09:22:34;2.97;;;1.50;;
20411;SDS011;10365;52.578;8.138;2023-06-14T09:25:00;4.20;;;1.60;;
20411;SDS011;10365;52.578;8.138;2023-06-14T09:27:29;2.70;;;1.63;;
20411;SDS011;10365;52.578;8.138;2023-06-14T09:29:54;7.82;;;1.70;;
20411;SDS011;10365;52.578;8.138;2023-06-14T09:32:20;5.13;;;1.52;;
20411;SDS011;10365;52.578;8.138;2023-06-14T09:34:46;4.68;;;1.55;;
20411;SDS011;10365;52.578;8.138;2023-06-14T09:37:11;7.20;;;1.77;;
20411;SDS011;10365;52.578;8.138;2023-06-14T09:39:48;8.35;;;1.70;;
20411;SDS011;10365;52.578;8.138;2023-06-14T09:42:18;9.60;;;2.05;;
20411;SDS011;10365;52.578;8.138;2023-06-14T09:44:47;10.30;;;1.40;;
20411;SDS011;10365;52.578;8.138;2023-06-14T09:47:14;6.07;;;1.45;;
20411;SDS011;10365;52.578;8.138;2023-06-14T09:49:40;11.45;;;1.83;;
20411;SDS011;10365;52.578;8.138;2023-06-14T09:52:06;7.75;;;1.75;;
20411;SDS011;10365;52.578;8.138;2023-06-14T09:54:32;7.15;;;1.83;;
20411;SDS011;10365;52.578;8.138;2023-06-14T09:56:58;4.63;;;1.25;;
20411;SDS011;10365;52.578;8.138;2023-06-14T09:59:26;5.97;;;1.60;;
20411;SDS011;10365;52.578;8.138;2023-06-14T10:01:55;4.18;;;1.50;;
20411;SDS011;10365;52.578;8.138;2023-06-14T10:04:22;6.50;;;1.45;;
20411;SDS011;10365;52.578;8.138;2023-06-14T10:06:48;5.93;;;1.73;;
20411;SDS011;10365;52.578;8.138;2023-06-14T10:09:14;2.58;;;1.38;;
20411;SDS011;10365;52.578;8.138;2023-06-14T10:11:40;5.90;;;1.80;;
20411;SDS011;10365;52.578;8.138;2023-06-14T10:14:09;5.63;;;1.67;;
20411;SDS011;10365;52.578;8.138;2023-06-14T10:16:56;2.83;;;1.48;;
20411;SDS011;10365;52.578;8.138;2023-06-14T10:19:29;6.10;;;1.60;;
20411;SDS011;10365;52.578;8.138;2023-06-14T10:22:01;4.18;;;1.48;;
20411;SDS011;10365;52.578;8.138;2023-06-14T10:24:32;3.20;;;1.48;;
20411;SDS011;10365;52.578;8.138;2023-06-14T10:26:58;3.90;;;1.83;;
20411;SDS011;10365;52.578;8.138;2023-06-14T10:29:24;5.78;;;1.73;;
20411;SDS011;10365;52.578;8.138;2023-06-14T10:31:50;7.20;;;1.42;;
20411;SDS011;10365;52.578;8.138;2023-06-14T10:34:25;2.63;;;1.50;;
20411;SDS011;10365;52.578;8.138;2023-06-14T10:37:07;5.88;;;1.48;;
20411;SDS011;10365;52.578;8.138;2023-06-14T10:39:38;5.38;;;1.95;;
20411;SDS011;10365;52.578;8.138;2023-06-14T10:42:04;10.13;;;2.03;;
20411;SDS011;10365;52.578;8.138;2023-06-14T10:44:51;2.97;;;1.30;;
20411;SDS011;10365;52.578;8.138;2023-06-14T10:47:20;5.95;;;1.50;;
20411;SDS011;10365;52.578;8.138;2023-06-14T10:49:53;7.07;;;1.63;;
20411;SDS011;10365;52.578;8.138;2023-06-14T10:52:26;6.43;;;1.80;;
20411;SDS011;10365;52.578;8.138;2023-06-14T10:57:38;2.80;;;1.30;;
20411;SDS011;10365;52.578;8.138;2023-06-14T11:00:04;3.35;;;1.80;;
20411;SDS011;10365;52.578;8.138;2023-06-14T11:05:26;2.65;;;1.48;;
20411;SDS011;10365;52.578;8.138;2023-06-14T11:07:58;2.55;;;1.40;;
20411;SDS011;10365;52.578;8.138;2023-06-14T11:10:40;5.18;;;1.27;;
20411;SDS011;10365;52.578;8.138;2023-06-14T11:13:06;3.65;;;1.40;;
20411;SDS011;10365;52.578;8.138;2023-06-14T11:15:32;8.23;;;1.45;;
20411;SDS011;10365;52.578;8.138;2023-06-14T11:18:00;5.13;;;1.75;;
20411;SDS011;10365;52.578;8.138;2023-06-14T11:20:25;4.47;;;1.20;;
20411;SDS011;10365;52.578;8.138;2023-06-14T11:22:52;20.55;;;2.10;;
20411;SDS011;10365;52.578;8.138;2023-06-14T11:25:18;4.85;;;1.30;;
20411;SDS011;10365;52.578;8.138;2023-06-14T11:27:43;2.47;;;1.35;;
20411;SDS011;10365;52.578;8.138;2023-06-14T11:30:09;5.93;;;1.40;;
20411;SDS011;10365;52.578;8.138;2023-06-14T11:32:35;2.90;;;1.52;;
20411;SDS011;10365;52.578;8.138;2023-06-14T11:35:01;2.40;;;1.63;;
20411;SDS011;10365;52.578;8.138;2023-06-14T11:37:27;4.55;;;1.40;;
20411;SDS011;10365;52.578;8.138;2023-06-14T11:39:57;6.90;;;1.60;;
20411;SDS011;10365;52.578;8.138;2023-06-14T11:42:22;9.27;;;1.23;;
20411;SDS011;10365;52.578;8.138;2023-06-14T11:44:51;3.55;;;1.67;;
20411;SDS011;10365;52.578;8.138;2023-06-14T11:47:17;6.43;;;1.75;;
20411;SDS011;10365;52.578;8.138;2023-06-14T11:49:42;10.38;;;2.05;;
20411;SDS011;10365;52.578;8.138;2023-06-14T11:52:08;5.15;;;1.52;;
20411;SDS011;10365;52.578;8.138;2023-06-14T11:54:33;4.50;;;1.33;;
20411;SDS011;10365;52.578;8.138;2023-06-14T11:56:59;1.90;;;1.20;;
20411;SDS011;10365;52.578;8.138;2023-06-14T11:59:24;2.90;;;1.27;;
20411;SDS011;10365;52.578;8.138;2023-06-14T12:01:50;3.10;;;1.10;;
20411;SDS011;10365;52.578;8.138;2023-06-14T12:04:24;4.60;;;1.55;;
20411;SDS011;10365;52.578;8.138;2023-06-14T12:06:50;7.53;;;1.60;;
20411;SDS011;10365;52.578;8.138;2023-06-14T12:09:18;3.40;;;1.52;;
20411;SDS011;10365;52.578;8.138;2023-06-14T12:11:45;4.90;;;1.40;;
20411;SDS011;10365;52.578;8.138;2023-06-14T12:14:10;3.75;;;1.80;;
20411;SDS011;10365;52.578;8.138;2023-06-14T12:16:39;7.47;;;1.60;;
20411;SDS011;10365;52.578;8.138;2023-06-14T12:19:11;4.78;;;1.50;;
20411;SDS011;10365;52.578;8.138;2023-06-14T12:21:37;5.25;;;1.85;;
20411;SDS011;10365;52.578;8.138;2023-06-14T12:24:03;3.53;;;1.80;;
20411;SDS011;10365;52.578;8.138;2023-06-14T12:26:29;3.10;;;1.65;;
20411;SDS011;10365;52.578;8.138;2023-06-14T12:28:54;5.72;;;1.80;;
20411;SDS011;10365;52.578;8.138;2023-06-14T12:31:20;3.03;;;1.50;;
20411;SDS011;10365;52.578;8.138;2023-06-14T12:33:46;5.78;;;1.30;;
20411;SDS011;10365;52.578;8.138;2023-06-14T12:36:13;2.63;;;1.73;;
20411;SDS011;10365;52.578;8.138;2023-06-14T12:38:39;9.13;;;2.20;;
20411;SDS011;10365;52.578;8.138;2023-06-14T12:41:04;3.53;;;1.65;;
20411;SDS011;10365;52.578;8.138;2023-06-14T12:43:30;8.25;;;1.92;;
20411;SDS011;10365;52.578;8.138;2023-06-14T12:45:55;5.03;;;1.90;;
20411;SDS011;10365;52.578;8.138;2023-06-14T12:48:20;6.20;;;1.77;;
20411;SDS011;10365;52.578;8.138;2023-06-14T12:50:46;5.40;;;1.60;;
20411;SDS011;10365;52.578;8.138;2023-06-14T12:53:11;2.70;;;1.65;;
20411;SDS011;10365;52.578;8.138;2023-06-14T12:55:37;2.88;;;1.60;;
20411;SDS011;10365;52.578;8.138;2023-06-14T12:58:02;2.88;;;1.65;;
20411;SDS011;10365;52.578;8.138;2023-06-14T13:00:28;6.22;;;1.50;;
20411;SDS011;10365;52.578;8.138;2023-06-14T13:02:55;19.67;;;2.38;;
20411;SDS011;10365;52.578;8.138;2023-06-14T13:05:21;11.88;;;1.90;;
20411;SDS011;10365;52.578;8.138;2023-06-14T13:07:47;4.20;;;1.90;;
20411;SDS011;10365;52.578;8.138;2023-06-14T13:10:12;4.60;;;1.77;;
20411;SDS011;10365;52.578;8.138;2023-06-14T13:12:37;2.45;;;1.48;;
20411;SDS011;10365;52.578;8.138;2023-06-14T13:15:03;2.92;;;1.67;;
20411;SDS011;10365;52.578;8.138;2023-06-14T13:17:28;2.38;;;1.65;;
20411;SDS011;10365;52.578;8.138;2023-06-14T13:19:53;2.50;;;1.55;;
20411;SDS011;10365;52.578;8.138;2023-06-14T13:22:19;3.28;;;1.80;;
20411;SDS011;10365;52.578;8.138;2023-06-14T13:24:45;8.05;;;1.70;;
20411;SDS011;10365;52.578;8.138;2023-06-14T13:27:10;4.82;;;1.73;;
20411;SDS011;10365;52.578;8.138;2023-06-14T13:29:36;2.28;;;1.63;;
20411;SDS011;10365;52.578;8.138;2023-06-14T13:32:01;4.25;;;1.77;;
20411;SDS011;10365;52.578;8.138;2023-06-14T13:34:27;8.27;;;1.88;;
20411;SDS011;10365;52.578;8.138;2023-06-14T13:36:52;3.58;;;1.63;;
20411;SDS011;10365;52.578;8.138;2023-06-14T13:39:18;4.80;;;1.60;;
20411;SDS011;10365;52.578;8.138;2023-06-14T13:41:44;6.22;;;1.60;;
20411;SDS011;10365;52.578;8.138;2023-06-14T13:44:09;4.28;;;2.00;;
20411;SDS011;10365;52.578;8.138;2023-06-14T13:46:39;6.10;;;1.80;;
20411;SDS011;10365;52.578;8.138;2023-06-14T13:49:04;7.05;;;1.83;;
20411;SDS011;10365;52.578;8.138;2023-06-14T13:51:30;5.40;;;1.73;;
20411;SDS011;10365;52.578;8.138;2023-06-14T13:53:55;3.75;;;2.08;;
20411;SDS011;10365;52.578;8.138;2023-06-14T13:56:21;4.00;;;1.92;;
20411;SDS011;10365;52.578;8.138;2023-06-14T13:58:47;2.78;;;2.10;;
20411;SDS011;10365;52.578;8.138;2023-06-14T14:01:13;4.20;;;2.00;;
20411;SDS011;10365;52.578;8.138;2023-06-14T14:03:38;4.55;;;1.88;;
20411;SDS011;10365;52.578;8.138;2023-06-14T14:06:04;6.03;;;1.80;;
20411;SDS011;10365;52.578;8.138;2023-06-14T14:08:30;4.15;;;1.92;;
20411;SDS011;10365;52.578;8.138;2023-06-14T14:10:55;2.72;;;1.80;;
20411;SDS011;10365;52.578;8.138;2023-06-14T14:13:21;5.43;;;1.75;;
20411;SDS011;10365;52.578;8.138;2023-06-14T14:15:46;3.80;;;2.00;;
20411;SDS011;10365;52.578;8.138;2023-06-14T14:18:12;4.88;;;2.40;;
20411;SDS011;10365;52.578;8.138;2023-06-14T14:20:37;5.25;;;2.25;;
20411;SDS011;10365;52.578;8.138;2023-06-14T14:23:02;2.65;;;2.20;;
20411;SDS011;10365;52.578;8.138;2023-06-14T14:25:28;3.40;;;1.80;;
20411;SDS011;10365;52.578;8.138;2023-06-14T14:27:53;4.63;;;1.90;;
20411;SDS011;10365;52.578;8.138;2023-06-14T14:30:19;3.33;;;2.15;;
20411;SDS011;10365;52.578;8.138;2023-06-14T14:32:48;9.73;;;1.90;;
20411;SDS011;10365;52.578;8.138;2023-06-14T14:35:16;7.85;;;2.17;;
20411;SDS011;10365;52.578;8.138;2023-06-14T14:37:41;6.32;;;2.67;;
20411;SDS011;10365;52.578;8.138;2023-06-14T14:40:07;11.18;;;2.47;;
20411;SDS011;10365;52.578;8.138;2023-06-14T14:42:34;10.93;;;2.20;;
20411;SDS011;10365;52.578;8.138;2023-06-14T14:44:59;3.50;;;2.10;;
20411;SDS011;10365;52.578;8.138;2023-06-14T14:47:24;2.88;;;1.83;;
20411;SDS011;10365;52.578;8.138;2023-06-14T14:49:50;4.53;;;1.85;;